KHGR

Hagerstown Regional-Richard A Henson Field Airport

Hagerstown, Maryland, USA
METAR KHGR 171353Z 24007KT 10SM CLR 06/M01 A2988 RMK AO2 SLP133 T00611006
Observed Flight Rules
Dec-17 @ 13:53 UTC (35 minutes ago) Visual Flight Rules
Wind Visibility Clouds
240° at 7 knots 10 miles
  • Clear skies
Temperatures Readings
Current 6°C / 43°F
Dewpoint -1°C / 30°F
Humidity 61%
Altimeter 29.88" Hg
Pressure 1013.3 hPa
Elevation 224
METAR KHGR 171353Z 24007KT 10SM CLR 06/M01 A2988 RMK AO2 SLP133 T00611006
Observed Flight Rules
Dec-17 @ 13:53 UTC
(35 minutes ago)
VFR
Wind Visibility
240° at 7 knots 10 miles
Clouds
  • Clear skies
Temperature Dewpoint
6°C / 43°F -1°C / 30°F
Humidity Altimeter Pressure
61% 29.88" Hg 1013.3 hPa